createdAt,value
2022-11-13T00:01:26.639Z,9.63
2022-11-13T00:04:13.758Z,8.83
2022-11-13T00:07:02.700Z,9.70
2022-11-13T00:09:50.029Z,8.07
2022-11-13T00:12:37.289Z,11.10
2022-11-13T00:15:24.249Z,11.50
2022-11-13T00:18:11.283Z,11.20
2022-11-13T00:20:58.974Z,8.40
2022-11-13T00:23:47.372Z,9.03
2022-11-13T00:26:34.304Z,7.17
2022-11-13T00:29:22.364Z,8.33
2022-11-13T00:32:09.515Z,8.70
2022-11-13T00:34:56.514Z,7.50
2022-11-13T00:37:45.516Z,9.07
2022-11-13T00:40:35.194Z,8.90
2022-11-13T00:43:22.709Z,8.10
2022-11-13T00:46:11.122Z,8.80
2022-11-13T00:48:58.373Z,9.27
2022-11-13T00:51:45.473Z,7.70
2022-11-13T00:54:32.454Z,9.87
2022-11-13T00:57:21.104Z,8.00
2022-11-13T01:00:10.054Z,7.83
2022-11-13T01:02:57.135Z,13.33
2022-11-13T01:05:46.120Z,6.73
2022-11-13T01:08:33.033Z,8.83
2022-11-13T01:11:22.849Z,10.90
2022-11-13T01:14:11.576Z,8.63
2022-11-13T01:16:58.671Z,10.30
2022-11-13T01:19:45.670Z,8.03
2022-11-13T01:22:32.687Z,8.23
2022-11-13T01:25:20.130Z,8.47
2022-11-13T01:28:07.086Z,8.30
2022-11-13T01:30:55.804Z,8.30
2022-11-13T01:33:43.167Z,9.07
2022-11-13T01:36:30.795Z,8.57
2022-11-13T01:39:18.106Z,7.77
2022-11-13T01:42:05.299Z,10.20
2022-11-13T01:44:55.178Z,7.27
2022-11-13T01:47:44.114Z,7.23
2022-11-13T01:50:31.334Z,7.80
2022-11-13T01:53:18.134Z,6.90
2022-11-13T01:56:05.214Z,7.77
2022-11-13T01:59:00.864Z,8.03
2022-11-13T02:01:49.093Z,7.23
2022-11-13T02:04:38.559Z,8.60
2022-11-13T02:07:26.049Z,9.03
2022-11-13T02:10:13.228Z,8.27
2022-11-13T02:13:00.177Z,7.87
2022-11-13T02:15:48.298Z,7.77
2022-11-13T02:18:37.817Z,7.60
2022-11-13T02:21:36.468Z,7.07
2022-11-13T02:24:29.579Z,15.13
2022-11-13T02:27:22.492Z,7.87
2022-11-13T02:30:16.283Z,7.87
2022-11-13T02:33:20.779Z,7.27
2022-11-13T02:36:11.201Z,7.43
2022-11-13T02:39:02.284Z,7.20
2022-11-13T02:41:51.504Z,8.00
2022-11-13T02:44:39.187Z,8.27
2022-11-13T02:47:26.711Z,8.97
2022-11-13T02:50:15.340Z,5.50
2022-11-13T02:53:03.650Z,7.00
2022-11-13T02:55:50.660Z,9.30
2022-11-13T02:58:39.426Z,9.83
2022-11-13T03:01:26.860Z,8.07
2022-11-13T03:04:14.970Z,7.13
2022-11-13T03:07:02.018Z,9.13
2022-11-13T03:09:49.594Z,8.53
2022-11-13T03:12:36.754Z,9.30
2022-11-13T03:15:25.465Z,7.20
2022-11-13T03:18:13.724Z,7.97
2022-11-13T03:21:08.311Z,10.30
2022-11-13T03:23:56.137Z,7.43
2022-11-13T03:26:43.799Z,7.70
2022-11-13T03:29:31.025Z,6.83
2022-11-13T03:32:19.176Z,7.57
2022-11-13T03:35:06.972Z,9.33
2022-11-13T03:37:54.450Z,6.83
2022-11-13T03:40:41.523Z,9.57
2022-11-13T03:43:29.045Z,10.77
2022-11-13T03:46:16.892Z,9.27
2022-11-13T03:49:09.733Z,7.13
2022-11-13T03:51:56.920Z,8.63
2022-11-13T03:54:44.441Z,9.47
2022-11-13T03:57:32.298Z,7.37
2022-11-13T04:00:20.206Z,10.27
2022-11-13T04:03:07.689Z,8.60
2022-11-13T04:05:56.944Z,9.10
2022-11-13T04:08:44.113Z,9.57
2022-11-13T04:11:31.507Z,11.53
2022-11-13T04:14:19.243Z,10.03
2022-11-13T04:17:07.211Z,9.20
2022-11-13T04:19:54.333Z,6.40
2022-11-13T04:22:42.968Z,7.07
2022-11-13T04:25:31.779Z,8.50
2022-11-13T04:28:19.054Z,9.83
2022-11-13T04:31:06.490Z,7.37
2022-11-13T04:33:53.478Z,13.13
2022-11-13T04:36:41.101Z,14.20
2022-11-13T04:39:30.604Z,6.47
2022-11-13T04:42:35.346Z,7.27
2022-11-13T04:45:24.018Z,10.63
2022-11-13T04:48:11.065Z,7.37
2022-11-13T04:50:58.168Z,10.63
2022-11-13T04:53:44.814Z,10.10
2022-11-13T04:56:33.656Z,9.87
2022-11-13T04:59:20.601Z,9.00
2022-11-13T05:02:07.703Z,9.73
2022-11-13T05:04:54.549Z,8.43
2022-11-13T05:07:42.734Z,11.20
2022-11-13T05:10:30.159Z,10.43
2022-11-13T05:13:18.848Z,8.30
2022-11-13T05:16:08.992Z,9.07
2022-11-13T05:18:56.188Z,7.07
2022-11-13T05:21:43.719Z,8.77
2022-11-13T05:24:31.445Z,7.83
2022-11-13T05:27:18.441Z,10.60
2022-11-13T05:30:08.368Z,6.13
2022-11-13T05:32:55.568Z,6.67
2022-11-13T05:35:42.859Z,7.10
2022-11-13T05:38:30.529Z,5.57
2022-11-13T05:41:19.997Z,6.57
2022-11-13T05:44:07.165Z,4.63
2022-11-13T05:46:55.934Z,4.87
2022-11-13T05:49:43.564Z,9.20
2022-11-13T05:52:31.035Z,5.50
2022-11-13T05:55:23.045Z,9.07
2022-11-13T05:58:11.991Z,6.87
2022-11-13T06:01:10.569Z,5.03
2022-11-13T06:04:00.383Z,5.70
2022-11-13T06:06:47.766Z,8.03
2022-11-13T06:09:34.776Z,6.10
2022-11-13T06:12:21.769Z,7.47
2022-11-13T06:15:09.628Z,5.27
2022-11-13T06:17:56.891Z,12.00
2022-11-13T06:20:45.390Z,6.57
2022-11-13T06:23:34.649Z,5.60
2022-11-13T06:26:23.995Z,7.90
2022-11-13T06:29:13.451Z,6.50
2022-11-13T06:32:00.391Z,5.50
2022-11-13T06:34:47.201Z,6.33
2022-11-13T06:37:35.769Z,5.87
2022-11-13T06:40:22.841Z,5.97
2022-11-13T06:43:10.230Z,6.90
2022-11-13T06:45:58.543Z,5.23
2022-11-13T06:48:45.645Z,6.27
2022-11-13T06:51:33.004Z,4.97
2022-11-13T06:54:21.568Z,5.30
2022-11-13T06:57:08.739Z,5.20
2022-11-13T06:59:56.139Z,6.90
2022-11-13T07:02:42.808Z,4.60
2022-11-13T07:05:29.846Z,5.20
2022-11-13T07:08:18.358Z,4.20
2022-11-13T07:11:07.870Z,6.00
2022-11-13T07:13:55.021Z,4.50
2022-11-13T07:17:07.456Z,4.03
2022-11-13T07:19:49.609Z,4.97
2022-11-13T07:22:37.639Z,3.73
2022-11-13T07:25:24.708Z,5.20
2022-11-13T07:28:13.876Z,5.23
2022-11-13T07:31:02.292Z,4.73
2022-11-13T07:33:51.368Z,4.37
2022-11-13T07:36:41.400Z,6.93
2022-11-13T07:39:28.542Z,3.67
2022-11-13T07:42:15.658Z,3.50
2022-11-13T07:45:05.406Z,4.30
2022-11-13T07:47:52.309Z,4.17
2022-11-13T07:50:43.259Z,4.00
2022-11-13T07:53:30.776Z,3.53
2022-11-13T07:56:22.895Z,3.60
2022-11-13T07:59:10.238Z,2.97
2022-11-13T08:01:58.602Z,4.27
2022-11-13T08:04:45.930Z,3.50
2022-11-13T08:07:33.224Z,4.23
2022-11-13T08:10:21.681Z,3.83
2022-11-13T08:13:10.586Z,4.83
2022-11-13T08:16:00.759Z,4.53
2022-11-13T08:18:49.899Z,4.00
2022-11-13T08:21:37.560Z,3.83
2022-11-13T08:24:24.470Z,5.33
2022-11-13T08:27:11.872Z,4.30
2022-11-13T08:29:58.871Z,4.57
2022-11-13T08:32:46.738Z,4.30
2022-11-13T08:35:35.203Z,4.37
2022-11-13T08:38:22.344Z,4.97
2022-11-13T08:41:10.115Z,6.20
2022-11-13T08:43:56.994Z,5.03
2022-11-13T08:46:44.341Z,6.20
2022-11-13T08:49:31.780Z,5.30
2022-11-13T08:52:20.256Z,5.07
2022-11-13T08:55:08.434Z,3.93
2022-11-13T08:57:55.831Z,5.53
2022-11-13T09:00:43.917Z,4.27
2022-11-13T09:03:31.128Z,4.70
2022-11-13T09:06:18.224Z,4.90
2022-11-13T09:09:11.741Z,5.07
2022-11-13T09:11:59.031Z,4.43
2022-11-13T09:14:46.411Z,5.33
2022-11-13T09:17:34.123Z,3.47
2022-11-13T09:20:23.052Z,5.73
2022-11-13T09:23:10.773Z,4.53
2022-11-13T09:26:03.086Z,3.60
2022-11-13T09:28:50.376Z,4.37
2022-11-13T09:31:41.375Z,4.03
2022-11-13T09:34:29.178Z,4.30
2022-11-13T09:37:17.067Z,3.40
2022-11-13T09:40:04.946Z,3.70
2022-11-13T09:42:54.072Z,5.47
2022-11-13T09:45:42.950Z,4.03
2022-11-13T09:48:36.348Z,5.27
2022-11-13T09:51:28.457Z,2.57
2022-11-13T09:54:17.482Z,3.53
2022-11-13T09:57:14.926Z,3.00
2022-11-13T10:00:07.012Z,2.63
2022-11-13T10:03:04.600Z,4.50
2022-11-13T10:06:00.896Z,5.20
2022-11-13T10:08:54.159Z,3.13
2022-11-13T10:11:45.211Z,3.17
2022-11-13T10:14:36.890Z,3.27
2022-11-13T10:17:30.424Z,2.07
2022-11-13T10:20:22.610Z,2.60
2022-11-13T10:23:16.419Z,3.63
2022-11-13T10:26:15.431Z,3.20
2022-11-13T10:29:07.405Z,2.83
2022-11-13T10:31:55.277Z,2.43
2022-11-13T10:34:48.623Z,3.47
2022-11-13T10:37:56.137Z,5.73
2022-11-13T10:40:43.637Z,4.20
2022-11-13T10:43:31.122Z,5.30
2022-11-13T10:46:21.690Z,2.80
2022-11-13T10:49:14.350Z,3.60
2022-11-13T10:52:08.410Z,2.90
2022-11-13T10:55:15.741Z,3.00
2022-11-13T10:58:05.057Z,6.40
2022-11-13T11:00:53.322Z,5.97
2022-11-13T11:03:50.549Z,5.10
2022-11-13T11:09:50.293Z,2.67
2022-11-13T11:12:37.716Z,2.60
2022-11-13T11:15:29.285Z,3.33
2022-11-13T11:18:25.300Z,3.87
2022-11-13T11:21:18.519Z,3.47
2022-11-13T11:24:10.848Z,4.17
2022-11-13T11:27:06.914Z,2.57
2022-11-13T11:30:05.121Z,3.57
2022-11-13T11:33:02.276Z,2.63
2022-11-13T11:35:53.958Z,8.00
2022-11-13T11:38:49.812Z,3.77
2022-11-13T11:41:42.732Z,3.43
2022-11-13T11:44:39.620Z,4.20
2022-11-13T11:47:27.276Z,5.10
2022-11-13T11:50:17.828Z,4.17
2022-11-13T11:53:13.507Z,2.47
2022-11-13T11:56:23.609Z,3.53
2022-11-13T11:59:21.341Z,2.70
2022-11-13T12:02:37.453Z,1.70
2022-11-13T12:05:27.065Z,1.93
2022-11-13T12:08:27.326Z,3.00
2022-11-13T12:11:24.455Z,1.17
2022-11-13T12:14:20.577Z,1.57
2022-11-13T12:17:27.980Z,1.70
2022-11-13T12:20:28.443Z,1.87
2022-11-13T12:23:28.009Z,1.53
2022-11-13T12:26:22.921Z,6.07
2022-11-13T12:29:27.023Z,2.97
2022-11-13T12:32:26.092Z,1.30
2022-11-13T12:35:18.399Z,1.37
2022-11-13T12:38:19.481Z,3.20
2022-11-13T12:41:17.125Z,1.40
2022-11-13T12:44:24.748Z,3.00
2022-11-13T12:47:12.260Z,1.63
2022-11-13T12:50:05.836Z,1.63
2022-11-13T12:53:01.219Z,2.13
2022-11-13T12:56:00.267Z,1.60
2022-11-13T12:59:29.895Z,3.17
2022-11-13T13:02:27.031Z,2.03
2022-11-13T13:05:40.067Z,1.63
2022-11-13T13:08:58.095Z,2.07
2022-11-13T13:11:55.221Z,1.53
2022-11-13T13:15:05.137Z,1.70
2022-11-13T13:18:04.290Z,4.93
2022-11-13T13:21:02.404Z,2.73
2022-11-13T13:23:51.115Z,1.87
2022-11-13T13:26:48.383Z,1.77
2022-11-13T13:29:35.622Z,2.83
2022-11-13T13:32:28.304Z,1.37
2022-11-13T13:35:19.447Z,2.17
2022-11-13T13:38:17.242Z,1.87
2022-11-13T13:41:18.522Z,1.50
2022-11-13T13:44:33.494Z,1.80
2022-11-13T13:47:27.057Z,2.83
2022-11-13T13:50:18.564Z,1.87
2022-11-13T13:53:06.964Z,1.70
2022-11-13T13:55:56.963Z,2.30
2022-11-13T13:58:44.409Z,1.50
2022-11-13T14:01:35.048Z,1.60
2022-11-13T14:04:24.696Z,2.73
2022-11-13T14:07:25.771Z,1.60
2022-11-13T14:10:18.386Z,1.37
2022-11-13T14:13:06.049Z,1.63
2022-11-13T14:16:03.445Z,2.97
2022-11-13T14:18:53.054Z,2.37
2022-11-13T14:21:40.175Z,3.47
2022-11-13T14:24:37.954Z,3.13
2022-11-13T14:27:27.272Z,2.43
2022-11-13T14:30:25.283Z,2.40
2022-11-13T14:33:18.899Z,3.20
2022-11-13T14:36:08.540Z,2.50
2022-11-13T14:38:56.326Z,3.70
2022-11-13T14:41:50.204Z,5.13
2022-11-13T14:44:37.296Z,2.57
2022-11-13T14:47:28.855Z,4.67
2022-11-13T14:50:22.529Z,4.25
2022-11-13T14:53:12.683Z,4.20
2022-11-13T14:56:03.821Z,4.03
2022-11-13T14:58:51.152Z,5.37
2022-11-13T15:01:39.786Z,5.27
2022-11-13T15:04:28.535Z,4.33
2022-11-13T15:07:28.644Z,7.33
2022-11-13T15:10:19.062Z,5.03
2022-11-13T15:13:13.807Z,6.27
2022-11-13T15:16:00.931Z,6.47
2022-11-13T15:18:51.083Z,7.97
2022-11-13T15:21:38.101Z,8.13
2022-11-13T15:24:25.315Z,6.90
2022-11-13T15:27:17.231Z,4.87
2022-11-13T15:30:05.208Z,4.13
2022-11-13T15:32:54.209Z,8.67
2022-11-13T15:35:43.420Z,4.93
2022-11-13T15:38:30.918Z,6.83
2022-11-13T15:41:21.512Z,5.43
2022-11-13T15:44:14.418Z,8.17
2022-11-13T15:47:01.446Z,6.10
2022-11-13T15:50:09.931Z,10.77
2022-11-13T15:53:02.338Z,11.70
2022-11-13T15:55:51.940Z,10.03
2022-11-13T15:58:39.336Z,10.20
2022-11-13T16:01:28.160Z,6.60
2022-11-13T16:04:16.662Z,7.53
2022-11-13T16:07:04.245Z,8.37
2022-11-13T16:09:51.335Z,7.60
2022-11-13T16:12:42.513Z,8.33
2022-11-13T16:15:30.011Z,7.53
2022-11-13T16:18:27.904Z,9.60
2022-11-13T16:21:15.671Z,8.97
2022-11-13T16:24:02.840Z,12.83
2022-11-13T16:26:56.601Z,9.53
2022-11-13T16:29:44.203Z,8.10
2022-11-13T16:32:31.576Z,8.60
2022-11-13T16:35:21.475Z,7.37
2022-11-13T16:38:13.732Z,5.93
2022-11-13T16:41:01.098Z,12.27
2022-11-13T16:43:48.145Z,9.03
2022-11-13T16:46:36.900Z,8.10
2022-11-13T16:49:24.343Z,10.43
2022-11-13T16:52:12.809Z,6.13
2022-11-13T16:55:06.119Z,8.90
2022-11-13T16:57:54.673Z,10.47
2022-11-13T17:00:42.349Z,10.43
2022-11-13T17:03:30.473Z,11.57
2022-11-13T17:06:23.192Z,8.70
2022-11-13T17:09:13.078Z,5.47
2022-11-13T17:12:00.126Z,5.37
2022-11-13T17:14:48.455Z,8.83
2022-11-13T17:17:35.762Z,8.77
2022-11-13T17:20:23.102Z,12.37
2022-11-13T17:23:17.889Z,11.13
2022-11-13T17:26:07.467Z,12.17
2022-11-13T17:28:55.482Z,12.50
2022-11-13T17:31:42.678Z,8.87
2022-11-13T17:34:31.082Z,8.30
2022-11-13T17:37:20.590Z,10.37
2022-11-13T17:40:13.064Z,10.37
2022-11-13T17:43:01.511Z,14.43
2022-11-13T17:45:51.126Z,13.80
2022-11-13T17:48:38.786Z,10.83
2022-11-13T17:51:26.437Z,15.67
2022-11-13T17:54:13.802Z,11.33
2022-11-13T17:57:02.344Z,10.30
2022-11-13T17:59:50.890Z,8.47
2022-11-13T18:02:37.961Z,10.37
2022-11-13T18:05:24.892Z,14.73
2022-11-13T18:08:12.763Z,12.50
2022-11-13T18:11:00.487Z,18.37
2022-11-13T18:13:48.912Z,13.50
2022-11-13T18:16:37.575Z,10.83
2022-11-13T18:19:24.838Z,12.07
2022-11-13T18:22:12.180Z,8.87
2022-11-13T18:25:01.597Z,14.73
2022-11-13T18:27:49.377Z,17.33
2022-11-13T18:30:39.462Z,14.93
2022-11-13T18:33:29.953Z,23.90
2022-11-13T18:36:17.216Z,26.13
2022-11-13T18:39:05.890Z,29.70
2022-11-13T18:41:55.584Z,24.87
2022-11-13T18:44:43.027Z,19.60
2022-11-13T18:47:31.027Z,20.13
2022-11-13T18:50:19.993Z,17.27
2022-11-13T18:53:07.561Z,24.87
2022-11-13T18:55:55.656Z,24.07
2022-11-13T18:58:45.094Z,18.90
2022-11-13T19:01:34.999Z,18.83
2022-11-13T19:04:23.579Z,18.83
2022-11-13T19:07:13.359Z,18.33
2022-11-13T19:10:00.557Z,17.40
2022-11-13T19:12:47.694Z,16.80
2022-11-13T19:15:37.476Z,17.43
2022-11-13T19:18:24.800Z,21.10
2022-11-13T19:21:14.858Z,17.17
2022-11-13T19:24:04.355Z,18.10
2022-11-13T19:26:52.682Z,14.60
2022-11-13T19:29:40.365Z,19.47
2022-11-13T19:32:27.821Z,15.63
2022-11-13T19:35:15.806Z,15.03
2022-11-13T19:38:03.273Z,14.03
2022-11-13T19:40:55.599Z,18.77
2022-11-13T19:43:45.226Z,14.97
2022-11-13T19:46:34.283Z,13.50
2022-11-13T19:49:21.635Z,19.30
2022-11-13T19:52:08.654Z,14.17
2022-11-13T19:54:55.926Z,14.40
2022-11-13T19:57:48.999Z,12.20
2022-11-13T20:00:37.464Z,11.97
2022-11-13T20:03:26.290Z,9.80
2022-11-13T20:06:16.844Z,12.07
2022-11-13T20:09:04.982Z,13.90
2022-11-13T20:11:51.978Z,13.00
2022-11-13T20:14:40.803Z,15.47
2022-11-13T20:17:28.793Z,14.77
2022-11-13T20:20:16.000Z,13.90
2022-11-13T20:23:08.062Z,15.90
2022-11-13T20:25:56.272Z,21.80
2022-11-13T20:28:44.429Z,19.93
2022-11-13T20:31:32.918Z,18.43
2022-11-13T20:34:20.530Z,13.27
2022-11-13T20:37:07.534Z,12.60
2022-11-13T20:40:08.570Z,15.27
2022-11-13T20:42:57.936Z,18.47
2022-11-13T20:45:47.907Z,20.30
2022-11-13T20:48:36.645Z,16.70
2022-11-13T20:51:26.062Z,18.60
2022-11-13T20:54:13.306Z,12.47
2022-11-13T20:57:00.528Z,15.93
2022-11-13T20:59:48.316Z,13.27
2022-11-13T21:02:36.629Z,11.57
2022-11-13T21:05:28.570Z,15.33
2022-11-13T21:08:15.996Z,15.17
2022-11-13T21:11:04.454Z,14.67
2022-11-13T21:13:53.741Z,18.17
2022-11-13T21:16:41.018Z,15.87
2022-11-13T21:19:31.296Z,11.37
2022-11-13T21:22:20.741Z,14.10
2022-11-13T21:25:09.553Z,17.43
2022-11-13T21:27:59.002Z,18.50
2022-11-13T21:30:46.635Z,16.33
2022-11-13T21:33:38.223Z,13.23
2022-11-13T21:36:28.170Z,14.73
2022-11-13T21:39:17.489Z,14.00
2022-11-13T21:42:05.006Z,16.70
2022-11-13T21:44:52.795Z,15.83
2022-11-13T21:47:40.151Z,13.93
2022-11-13T21:50:28.013Z,13.83
2022-11-13T21:53:15.849Z,14.37
2022-11-13T21:56:05.188Z,13.10
2022-11-13T21:58:54.480Z,10.83
2022-11-13T22:01:42.300Z,11.37
2022-11-13T22:04:35.723Z,14.83
2022-11-13T22:07:23.777Z,14.20
2022-11-13T22:10:11.007Z,12.07
2022-11-13T22:12:59.769Z,14.63
2022-11-13T22:15:47.757Z,10.17
2022-11-13T22:18:35.658Z,11.53
2022-11-13T22:21:23.439Z,14.73
2022-11-13T22:24:11.758Z,12.80
2022-11-13T22:26:59.414Z,11.80
2022-11-13T22:29:48.800Z,14.30
2022-11-13T22:32:36.237Z,14.27
2022-11-13T22:35:23.492Z,17.13
2022-11-13T22:38:12.680Z,14.37
2022-11-13T22:41:04.483Z,15.83
2022-11-13T22:43:53.358Z,11.03
2022-11-13T22:46:42.308Z,13.87
2022-11-13T22:49:29.533Z,12.53
2022-11-13T22:52:16.800Z,19.87
2022-11-13T22:55:04.064Z,14.47
2022-11-13T22:57:51.369Z,12.23
2022-11-13T23:00:38.482Z,12.73
2022-11-13T23:03:27.060Z,14.03
2022-11-13T23:06:15.433Z,12.57
2022-11-13T23:09:03.688Z,11.47
2022-11-13T23:11:50.661Z,12.60
2022-11-13T23:14:38.125Z,11.40
2022-11-13T23:17:25.685Z,15.47
2022-11-13T23:20:15.317Z,15.30
2022-11-13T23:23:02.583Z,17.80
2022-11-13T23:25:49.783Z,14.37
2022-11-13T23:28:38.302Z,11.97
2022-11-13T23:31:26.336Z,13.80
2022-11-13T23:34:13.266Z,15.17
2022-11-13T23:37:02.824Z,15.60
2022-11-13T23:39:50.345Z,18.07
2022-11-13T23:42:54.171Z,16.90
2022-11-13T23:45:42.497Z,18.50
2022-11-13T23:48:30.607Z,14.90
2022-11-13T23:51:18.421Z,12.80
2022-11-13T23:54:07.504Z,14.00
2022-11-13T23:56:55.330Z,17.13
2022-11-13T23:59:42.759Z,14.63
